Time;durP1;ratioP1;P1;durP2;ratioP2;P2;SDS_P1;SDS_P2;PMS_P1;PMS_P2;Temp;Humidity;BMP_temperature;BMP_pressure;BME280_temperature;BME280_humidity;BME280_pressure;Samples;Min_cycle;Max_cycle;Signal;HPM_P1;HPM_P2
2022/05/04 04:00:56;;;;;;;11.20;9.60;;;3.80;96.30;;;;;;5717646;23;20509;-76
2022/05/04 04:03:21;;;;;;;8.77;7.97;;;3.90;96.30;;;;;;4953673;29;20462;-77
2022/05/04 04:05:47;;;;;;;11.40;8.70;;;4.00;96.30;;;;;;4953583;29;20301;-75
2022/05/04 04:08:12;;;;;;;9.00;7.97;;;4.10;96.30;;;;;;4953068;29;20177;-76
2022/05/04 04:10:38;;;;;;;9.20;7.77;;;4.20;96.30;;;;;;4953545;29;20202;-75
2022/05/04 04:13:06;;;;;;;10.93;8.47;;;4.30;96.30;;;;;;4936262;29;20211;-75
2022/05/04 04:15:33;;;;;;;8.77;7.97;;;4.40;96.30;;;;;;4954186;29;20207;-73
2022/05/04 04:17:58;;;;;;;9.70;8.80;;;4.60;96.30;;;;;;4953771;29;20415;-73
2022/05/04 04:23:08;;;;;;;12.90;10.60;;;5.10;96.30;;;;;;4954194;29;20226;-73
2022/05/04 04:25:34;;;;;;;21.53;11.60;;;5.60;96.30;;;;;;4954064;29;20499;-74
2022/05/04 04:28:00;;;;;;;14.20;9.87;;;6.10;96.30;;;;;;4953349;29;20585;-74
2022/05/04 04:39:36;;;;;;;9.13;6.63;;;8.80;96.30;;;;;;4958919;29;20453;-74
2022/05/04 04:52:28;;;;;;;7.77;5.97;;;11.10;96.30;;;;;;5631714;23;20520;-74
2022/05/04 04:54:54;;;;;;;10.20;6.40;;;10.80;96.30;;;;;;4958860;28;20436;-73
2022/05/04 04:57:19;;;;;;;7.80;6.00;;;10.60;96.30;;;;;;4958929;28;20913;-73
2022/05/04 04:59:45;;;;;;;8.60;6.20;;;10.20;96.30;;;;;;4975630;28;20175;-73
2022/05/04 05:02:10;;;;;;;6.17;5.57;;;10.40;96.30;;;;;;4958801;28;20244;-72
2022/05/04 05:04:36;;;;;;;8.07;5.90;;;10.20;96.30;;;;;;4975956;28;20197;-73
2022/05/04 05:07:02;;;;;;;14.90;5.80;;;10.00;96.30;;;;;;4975965;28;20277;-73
2022/05/04 05:09:27;;;;;;;7.37;5.97;;;9.70;96.30;;;;;;4945614;28;20183;-73
2022/05/04 05:11:52;;;;;;;9.40;5.90;;;9.00;96.30;;;;;;4946611;29;20342;-72
2022/05/04 05:17:02;;;;;;;7.33;5.40;;;8.60;96.30;;;;;;4957034;29;20173;-73
2022/05/04 05:19:28;;;;;;;6.47;5.87;;;8.40;96.30;;;;;;4956124;29;20490;-73
2022/05/04 05:21:53;;;;;;;9.50;6.23;;;8.50;96.30;;;;;;4956782;29;20647;-73
2022/05/04 05:24:19;;;;;;;6.03;5.43;;;8.60;96.30;;;;;;4948620;29;20199;-73
2022/05/04 05:26:44;;;;;;;7.00;6.00;;;8.70;96.30;;;;;;4953997;29;20207;-73
2022/05/04 05:29:10;;;;;;;8.90;6.57;;;8.90;96.30;;;;;;4955790;29;20183;-73
2022/05/04 05:31:35;;;;;;;11.27;6.40;;;9.30;96.30;;;;;;4952427;29;20294;-73
2022/05/04 05:34:01;;;;;;;8.60;5.90;;;10.10;96.30;;;;;;4956084;29;20175;-73
2022/05/04 05:36:26;;;;;;;6.67;6.07;;;10.80;96.30;;;;;;4943015;29;20192;-73
2022/05/04 05:38:52;;;;;;;6.17;5.57;;;11.00;96.30;;;;;;4944326;29;20191;-73
2022/05/04 05:46:29;;;;;;;8.80;5.73;;;11.10;96.30;;;;;;4094285;23;20515;-74
2022/05/04 05:48:54;;;;;;;9.60;5.37;;;11.20;96.30;;;;;;4975041;28;20923;-73
2022/05/04 05:59:06;;;;;;;8.20;5.67;;;13.40;96.30;;;;;;5183425;23;20489;-71
2022/05/04 06:53:41;;;;;;;7.67;4.00;;;20.60;83.00;;;;;;4966763;23;20489;-74
2022/05/04 06:56:08;;;;;;;5.20;4.70;;;19.80;85.60;;;;;;4954677;29;20458;-74
2022/05/04 06:58:33;;;;;;;7.00;5.40;;;20.40;84.40;;;;;;4954818;29;20914;-74
2022/05/04 07:00:59;;;;;;;6.80;4.93;;;20.70;83.50;;;;;;4954687;29;20445;-73
2022/05/04 07:03:25;;;;;;;7.37;4.77;;;20.80;83.50;;;;;;4954894;29;20541;-73
2022/05/04 07:05:53;;;;;;;6.20;5.10;;;21.40;81.00;;;;;;4937139;29;20210;-74
2022/05/04 07:08:18;;;;;;;11.23;4.83;;;21.70;80.40;;;;;;4954821;29;20583;-73
2022/05/04 07:44:23;;;;;;;6.87;4.87;;;22.60;75.50;;;;;;5784239;23;20932;-73
2022/05/04 07:46:49;;;;;;;5.67;4.63;;;23.00;74.40;;;;;;4973506;28;20469;-73
2022/05/04 07:49:14;;;;;;;7.30;5.10;;;22.10;77.10;;;;;;4973200;28;20170;-74
2022/05/04 08:07:12;;;;;;;8.27;6.23;;;23.60;72.10;;;;;;5626148;23;20499;-73
2022/05/04 08:09:37;;;;;;;6.97;4.87;;;24.50;71.30;;;;;;4972742;28;20414;-74
2022/05/04 08:12:06;;;;;;;5.50;4.30;;;24.40;69.10;;;;;;4973640;28;20225;-75
2022/05/04 08:14:31;;;;;;;8.47;4.63;;;24.10;71.70;;;;;;4972760;28;20170;-74
2022/05/04 08:16:57;;;;;;;5.73;4.40;;;23.70;69.30;;;;;;4972942;28;20421;-73
2022/05/04 08:19:22;;;;;;;5.70;5.07;;;23.50;70.20;;;;;;4976384;28;20186;-73
2022/05/04 08:21:48;;;;;;;6.20;4.50;;;23.40;71.70;;;;;;4976647;28;20190;-74
2022/05/04 08:24:13;;;;;;;4.97;4.40;;;23.20;70.90;;;;;;4979412;28;20180;-73
2022/05/04 08:26:38;;;;;;;11.23;4.60;;;23.50;72.70;;;;;;4976651;28;20296;-74
2022/05/04 08:29:05;;;;;;;8.67;5.07;;;23.40;71.80;;;;;;4976333;28;20181;-74
2022/05/04 08:31:31;;;;;;;15.43;4.63;;;23.70;69.70;;;;;;4976688;28;20665;-74
2022/05/04 08:33:57;;;;;;;5.70;5.20;;;24.40;70.40;;;;;;4967129;28;20438;-73
2022/05/04 08:36:24;;;;;;;7.23;5.10;;;23.80;69.80;;;;;;4957232;29;20178;-74
2022/05/04 08:38:49;;;;;;;8.87;5.17;;;24.50;69.60;;;;;;4957076;29;20233;-74
2022/05/04 08:41:15;;;;;;;6.20;5.37;;;24.80;67.90;;;;;;4939617;29;21000;-74
2022/05/04 08:43:43;;;;;;;7.73;5.30;;;25.00;71.50;;;;;;4957079;29;20174;-75
2022/05/04 08:46:14;;;;;;;9.23;5.10;;;25.20;67.30;;;;;;4956886;29;20202;-74
2022/05/04 08:48:40;;;;;;;7.43;5.90;;;25.20;68.10;;;;;;4956806;29;20484;-74
2022/05/04 08:51:07;;;;;;;8.13;5.30;;;24.00;68.30;;;;;;4956838;29;20923;-74
2022/05/04 08:53:34;;;;;;;14.57;5.70;;;24.20;69.60;;;;;;4957068;29;20442;-74
2022/05/04 08:56:01;;;;;;;8.93;5.33;;;24.60;70.10;;;;;;4957086;29;20426;-76
2022/05/04 08:58:26;;;;;;;10.13;5.00;;;23.90;67.70;;;;;;4956140;29;20418;-76
2022/05/04 09:00:52;;;;;;;5.20;4.70;;;23.40;68.60;;;;;;4956950;29;20488;-76
2022/05/04 09:03:21;;;;;;;5.50;4.70;;;23.10;69.70;;;;;;4956825;29;20174;-75
2022/05/04 09:05:48;;;;;;;11.50;5.03;;;23.00;71.00;;;;;;4956778;29;20190;-76
2022/05/04 09:08:14;;;;;;;6.20;5.13;;;24.10;67.30;;;;;;4956360;29;20938;-75
2022/05/04 09:10:44;;;;;;;6.03;5.43;;;24.60;65.80;;;;;;4956597;29;20446;-76
2022/05/04 09:13:10;;;;;;;5.33;4.60;;;23.20;67.00;;;;;;4956605;29;20411;-74
2022/05/04 09:15:40;;;;;;;5.37;4.80;;;22.20;70.80;;;;;;4956455;29;20498;-76
2022/05/04 09:18:19;;;;;;;13.83;5.10;;;21.80;72.60;;;;;;4956425;29;20510;-75
2022/05/04 09:20:55;;;;;;;6.50;4.50;;;21.00;70.70;;;;;;4956658;29;20453;-76
2022/05/04 09:23:28;;;;;;;8.93;4.73;;;20.50;73.00;;;;;;4939156;29;20961;-76
2022/05/04 09:25:59;;;;;;;10.23;4.47;;;20.20;73.90;;;;;;4955727;29;20492;-74
2022/05/04 09:28:26;;;;;;;5.70;4.77;;;19.80;78.30;;;;;;4956215;29;20779;-75
2022/05/04 09:30:55;;;;;;;7.33;5.63;;;19.50;75.10;;;;;;4954813;29;20458;-75
2022/05/04 09:33:26;;;;;;;8.90;6.13;;;19.20;77.60;;;;;;4955977;29;21040;-75
2022/05/04 09:35:53;;;;;;;8.80;6.00;;;19.00;82.70;;;;;;4956183;29;20418;-73
2022/05/04 09:46:44;;;;;;;11.53;6.20;;;19.10;85.20;;;;;;4956204;29;20609;-73
2022/05/04 09:49:14;;;;;;;8.03;5.63;;;19.10;84.30;;;;;;4955620;29;20407;-73
2022/05/04 09:51:41;;;;;;;5.90;5.30;;;18.90;88.50;;;;;;4955777;29;20437;-73
2022/05/04 09:54:14;;;;;;;6.47;5.60;;;18.80;88.30;;;;;;4955814;29;20425;-73
2022/05/04 09:56:40;;;;;;;14.47;6.50;;;18.70;85.40;;;;;;4955686;29;20411;-73
2022/05/04 09:59:06;;;;;;;10.27;6.17;;;18.60;84.80;;;;;;4955495;29;20426;-73
2022/05/04 10:01:33;;;;;;;9.43;6.07;;;18.60;83.60;;;;;;4955565;29;20430;-73
2022/05/04 10:04:00;;;;;;;6.20;5.50;;;18.30;85.00;;;;;;4955752;29;20538;-73
2022/05/04 10:06:26;;;;;;;9.57;6.17;;;18.50;85.90;;;;;;4945614;28;20497;-73
2022/05/04 10:08:52;;;;;;;7.13;5.47;;;18.90;85.20;;;;;;4945112;29;20430;-73
2022/05/04 10:11:19;;;;;;;5.70;5.10;;;19.50;82.20;;;;;;4960329;28;20473;-74
2022/05/04 10:13:44;;;;;;;8.50;5.10;;;20.20;82.10;;;;;;4961911;28;20178;-74
2022/05/04 10:16:11;;;;;;;8.00;5.43;;;20.90;78.60;;;;;;4956262;29;20506;-75
2022/05/04 10:18:39;;;;;;;8.13;5.60;;;21.40;78.10;;;;;;4955678;29;20171;-75
2022/05/04 10:21:13;;;;;;;5.40;4.90;;;21.90;78.20;;;;;;4955623;29;20438;-76
2022/05/04 10:23:53;;;;;;;5.17;4.67;;;22.40;73.80;;;;;;4953690;29;20433;-74
2022/05/04 10:26:34;;;;;;;6.30;4.73;;;22.90;73.90;;;;;;4955224;29;20462;-75
2022/05/04 10:31:54;;;;;;;6.63;5.07;;;22.60;72.50;;;;;;4936055;29;20977;-75
2022/05/04 10:34:19;;;;;;;4.50;4.10;;;23.00;76.10;;;;;;4936099;29;20418;-74
2022/05/04 10:36:46;;;;;;;6.23;4.47;;;23.00;72.80;;;;;;4935684;29;20419;-75
2022/05/04 10:39:20;;;;;;;5.30;4.67;;;21.70;74.50;;;;;;4935688;29;20230;-75
2022/05/04 10:41:46;;;;;;;12.00;4.20;;;20.70;74.30;;;;;;4935257;29;20435;-75
2022/05/04 10:44:12;;;;;;;4.77;4.30;;;20.30;75.50;;;;;;4935715;29;20466;-74
2022/05/04 10:46:41;;;;;;;5.00;3.80;;;19.70;77.60;;;;;;4935749;29;20463;-74
2022/05/04 10:49:10;;;;;;;5.67;4.60;;;19.60;80.20;;;;;;4935320;29;20171;-75
2022/05/04 10:51:38;;;;;;;4.73;4.27;;;19.90;77.10;;;;;;4935577;29;20442;-75
2022/05/04 10:54:13;;;;;;;5.43;4.17;;;19.80;76.80;;;;;;4935298;29;20411;-75
2022/05/04 10:56:47;;;;;;;5.70;4.30;;;19.80;77.20;;;;;;4960958;28;20421;-75
2022/05/04 10:59:26;;;;;;;8.30;4.73;;;19.50;76.50;;;;;;4967228;28;20506;-75
2022/05/04 11:01:56;;;;;;;5.40;3.80;;;19.50;77.10;;;;;;4954688;29;20466;-75
2022/05/04 11:04:25;;;;;;;9.10;4.40;;;19.60;77.60;;;;;;4954485;29;20426;-74
2022/05/04 11:07:00;;;;;;;7.83;4.10;;;19.60;78.50;;;;;;4954213;29;20505;-75
2022/05/04 11:09:35;;;;;;;5.37;3.73;;;20.00;76.90;;;;;;4953838;29;20418;-74
2022/05/04 11:12:04;;;;;;;3.83;3.50;;;19.70;76.10;;;;;;4954623;29;21005;-74
2022/05/04 11:14:31;;;;;;;6.43;3.77;;;19.70;77.60;;;;;;4954288;29;20506;-75
2022/05/04 11:16:58;;;;;;;4.53;4.13;;;19.80;78.70;;;;;;4953784;29;20810;-74
2022/05/04 11:19:32;;;;;;;4.37;3.70;;;19.80;75.20;;;;;;4953724;28;20525;-74
2022/05/04 11:21:58;;;;;;;8.90;4.20;;;19.80;76.40;;;;;;4954137;29;20461;-74
2022/05/04 11:24:27;;;;;;;5.23;4.17;;;19.90;75.20;;;;;;4954171;29;20906;-75
2022/05/04 11:26:53;;;;;;;4.17;3.77;;;19.70;77.80;;;;;;4954046;29;20713;-74
2022/05/04 11:29:22;;;;;;;5.60;4.27;;;20.00;78.80;;;;;;4954030;29;20418;-74
2022/05/04 11:31:56;;;;;;;6.33;3.93;;;20.30;75.20;;;;;;4954044;29;20198;-74
2022/05/04 11:34:27;;;;;;;8.00;4.80;;;20.20;75.60;;;;;;4954019;29;20418;-75
2022/05/04 11:36:56;;;;;;;4.10;3.77;;;19.80;76.50;;;;;;4936603;29;20419;-74
2022/05/04 11:39:27;;;;;;;5.00;3.50;;;19.90;75.80;;;;;;4953639;29;20848;-74
2022/05/04 11:41:55;;;;;;;4.87;3.57;;;19.60;78.20;;;;;;4953818;29;20529;-75
2022/05/04 11:44:23;;;;;;;8.17;3.47;;;19.70;76.10;;;;;;4954115;29;20785;-74
2022/05/04 11:46:54;;;;;;;6.13;3.70;;;19.70;76.40;;;;;;4953832;29;20466;-74
2022/05/04 11:49:22;;;;;;;4.70;3.67;;;19.80;76.50;;;;;;4953705;29;20410;-74
2022/05/04 11:51:49;;;;;;;12.63;4.47;;;19.60;76.50;;;;;;4953706;29;20430;-74
2022/05/04 11:54:15;;;;;;;7.87;4.50;;;19.40;76.80;;;;;;4953329;29;20414;-74
2022/05/04 11:56:41;;;;;;;5.10;3.43;;;19.40;76.70;;;;;;4953870;29;20513;-74
2022/05/04 11:59:09;;;;;;;3.27;2.97;;;19.20;79.50;;;;;;4953591;29;20478;-75
2022/05/04 12:01:35;;;;;;;5.43;3.67;;;18.90;80.90;;;;;;4953625;29;20279;-74
2022/05/04 12:04:02;;;;;;;6.60;3.60;;;18.70;81.90;;;;;;4953980;29;20420;-74
2022/05/04 12:06:28;;;;;;;6.00;3.97;;;18.50;81.80;;;;;;4953633;29;20462;-74
2022/05/04 12:08:54;;;;;;;16.07;5.00;;;18.20;86.20;;;;;;4953914;29;20419;-73
2022/05/04 12:11:22;;;;;;;4.77;4.27;;;17.80;88.10;;;;;;4953612;29;20430;-75
2022/05/04 12:13:47;;;;;;;5.30;3.70;;;17.30;88.30;;;;;;4953693;29;20237;-74
2022/05/04 12:16:14;;;;;;;6.00;4.40;;;17.10;87.80;;;;;;4953744;29;20415;-74
2022/05/04 12:18:40;;;;;;;8.73;3.70;;;17.00;88.20;;;;;;4953662;29;20262;-74
2022/05/04 12:21:10;;;;;;;4.73;4.13;;;17.20;88.50;;;;;;4953912;29;20926;-74
2022/05/04 12:23:37;;;;;;;6.10;4.40;;;17.20;87.20;;;;;;4934781;29;20475;-75
2022/05/04 12:26:04;;;;;;;4.37;3.97;;;17.20;87.00;;;;;;4942694;29;20473;-73
2022/05/04 12:28:30;;;;;;;6.93;3.90;;;17.50;86.90;;;;;;4940918;29;20432;-74
2022/05/04 12:33:41;;;;;;;3.73;3.43;;;18.10;85.80;;;;;;4953541;29;20421;-74
2022/05/04 12:36:09;;;;;;;3.57;3.23;;;18.40;82.70;;;;;;4941857;29;20431;-74
2022/05/04 12:38:36;;;;;;;9.03;4.00;;;18.40;81.70;;;;;;4935197;29;20427;-74
2022/05/04 12:41:04;;;;;;;5.13;3.17;;;18.60;83.80;;;;;;4960658;28;20510;-74
2022/05/04 12:43:34;;;;;;;6.70;3.40;;;18.70;82.60;;;;;;4946150;29;20430;-76
2022/05/04 12:46:01;;;;;;;9.00;3.67;;;18.70;82.90;;;;;;4944945;29;20513;-75
2022/05/04 12:48:27;;;;;;;5.60;3.37;;;19.00;83.40;;;;;;4933894;29;20434;-75
2022/05/04 12:50:57;;;;;;;6.33;3.30;;;19.20;82.80;;;;;;4934270;29;20916;-75
2022/05/04 12:53:24;;;;;;;4.27;3.63;;;19.50;78.90;;;;;;4934499;29;20908;-74
2022/05/04 12:58:33;;;;;;;4.80;3.30;;;19.30;81.20;;;;;;4934717;29;20534;-75
2022/05/04 13:00:59;;;;;;;9.90;3.17;;;19.10;78.30;;;;;;4934428;29;20522;-76
2022/05/04 13:03:25;;;;;;;4.20;3.20;;;19.00;78.60;;;;;;4946491;28;20187;-75
2022/05/04 13:05:50;;;;;;;4.10;3.00;;;18.90;76.50;;;;;;4950537;29;20203;-76
2022/05/04 13:08:16;;;;;;;4.50;2.83;;;19.10;75.40;;;;;;4938919;29;20208;-75
2022/05/04 13:10:41;;;;;;;4.90;4.07;;;19.10;75.00;;;;;;4937549;29;20393;-74
2022/05/04 13:13:07;;;;;;;8.43;3.90;;;19.20;77.20;;;;;;4938890;29;20191;-77
2022/05/04 13:15:33;;;;;;;4.20;3.40;;;19.30;77.10;;;;;;4933616;29;20270;-76
2022/05/04 13:17:59;;;;;;;3.57;3.30;;;19.40;78.40;;;;;;4945304;29;20690;-76
2022/05/04 13:20:25;;;;;;;3.83;2.83;;;19.20;75.70;;;;;;4956261;29;20406;-76
2022/05/04 13:22:51;;;;;;;4.93;3.73;;;19.50;75.20;;;;;;4946930;29;20438;-75
2022/05/04 13:25:17;;;;;;;5.27;3.40;;;19.80;77.10;;;;;;4920100;29;20183;-75
2022/05/04 13:27:43;;;;;;;7.63;3.83;;;20.00;77.40;;;;;;4937066;29;20175;-76
2022/05/04 13:30:09;;;;;;;7.33;4.27;;;20.10;80.40;;;;;;4939715;29;20650;-76
2022/05/04 13:32:34;;;;;;;4.53;3.87;;;19.90;80.60;;;;;;4937040;29;20427;-75
2022/05/04 13:35:00;;;;;;;5.63;3.90;;;19.70;80.50;;;;;;4944763;29;20831;-76
2022/05/04 13:37:25;;;;;;;3.73;3.43;;;19.60;81.00;;;;;;4945831;29;20188;-75
2022/05/04 13:39:51;;;;;;;5.43;3.60;;;19.80;80.30;;;;;;4945376;29;20198;-75
2022/05/04 13:42:17;;;;;;;6.53;3.00;;;20.00;78.40;;;;;;4946992;29;20198;-75
2022/05/04 13:44:42;;;;;;;4.50;3.60;;;20.30;75.80;;;;;;4945500;29;20172;-76
2022/05/04 13:47:10;;;;;;;4.87;4.37;;;20.80;77.00;;;;;;4923056;29;20211;-75
2022/05/04 13:49:36;;;;;;;7.23;4.00;;;21.10;73.30;;;;;;4937778;29;20180;-76
2022/05/04 13:54:45;;;;;;;3.73;3.10;;;22.00;80.80;;;;;;4946438;29;20193;-76
2022/05/04 13:57:11;;;;;;;5.37;3.40;;;22.00;75.00;;;;;;4936696;29;20506;-75
2022/05/04 13:59:36;;;;;;;9.50;3.60;;;22.00;76.70;;;;;;4945752;29;20183;-76
2022/05/04 14:02:03;;;;;;;7.40;3.70;;;22.40;75.40;;;;;;4941506;29;20734;-76
2022/05/04 14:04:29;;;;;;;4.00;3.20;;;22.80;75.80;;;;;;4936733;29;20618;-77
2022/05/04 14:06:54;;;;;;;5.60;3.93;;;22.80;77.10;;;;;;4954333;29;20553;-76
2022/05/04 14:09:20;;;;;;;11.80;4.30;;;23.00;75.70;;;;;;4955597;29;20631;-76
2022/05/04 14:11:45;;;;;;;10.10;3.63;;;23.40;77.30;;;;;;4955261;29;20283;-76
2022/05/04 14:16:55;;;;;;;9.63;4.70;;;23.10;69.30;;;;;;4937641;29;20190;-76
2022/05/04 14:19:20;;;;;;;8.10;4.27;;;22.20;71.60;;;;;;4936362;29;20428;-76
2022/05/04 14:21:46;;;;;;;3.50;3.10;;;21.70;73.40;;;;;;4936228;29;20254;-76
2022/05/04 14:24:12;;;;;;;6.33;4.13;;;21.60;71.10;;;;;;4936227;29;20664;-76
2022/05/04 14:26:39;;;;;;;4.43;3.13;;;21.10;72.40;;;;;;4936137;29;20509;-75
2022/05/04 14:29:05;;;;;;;15.07;4.37;;;20.70;72.80;;;;;;4935854;29;20176;-76
2022/05/04 14:31:32;;;;;;;13.27;5.13;;;20.40;74.10;;;;;;4936072;29;20927;-76
2022/05/04 14:33:57;;;;;;;3.53;2.70;;;20.70;73.30;;;;;;4936248;29;20542;-76
2022/05/04 14:36:23;;;;;;;4.90;3.10;;;20.70;70.80;;;;;;4936187;29;20419;-76
2022/05/04 14:38:48;;;;;;;5.93;3.50;;;21.40;70.10;;;;;;4938746;29;20240;-75
2022/05/04 14:41:14;;;;;;;5.73;4.70;;;21.80;69.40;;;;;;4947589;29;20203;-76
2022/05/04 14:43:39;;;;;;;4.30;3.87;;;21.60;69.70;;;;;;4955106;29;20186;-76
2022/05/04 14:46:05;;;;;;;8.80;4.93;;;21.20;71.80;;;;;;4954998;29;20564;-76
2022/05/04 14:48:30;;;;;;;7.73;4.30;;;20.80;72.10;;;;;;4954579;29;20240;-76
2022/05/04 14:50:57;;;;;;;5.30;3.83;;;21.00;74.50;;;;;;4954887;29;20198;-76
2022/05/04 14:53:22;;;;;;;5.87;4.57;;;21.40;73.90;;;;;;4954618;29;20171;-78
2022/05/04 14:55:47;;;;;;;4.80;4.40;;;21.40;73.40;;;;;;4944105;29;20422;-76
2022/05/04 14:58:13;;;;;;;4.53;3.70;;;21.00;73.40;;;;;;4942661;29;20660;-76
2022/05/04 15:00:38;;;;;;;9.70;4.80;;;20.90;74.90;;;;;;4936575;29;20282;-76
2022/05/04 15:05:48;;;;;;;6.60;4.57;;;20.80;74.40;;;;;;4935516;29;20225;-76
2022/05/04 15:08:14;;;;;;;7.67;4.73;;;20.90;73.40;;;;;;4935324;29;20915;-75
2022/05/04 15:10:39;;;;;;;4.90;4.40;;;20.80;73.90;;;;;;4935892;29;20250;-76
2022/05/04 15:13:05;;;;;;;7.33;4.20;;;20.90;74.50;;;;;;4935446;29;20263;-77
2022/05/04 15:15:30;;;;;;;7.10;4.80;;;20.70;73.60;;;;;;4935517;29;20183;-76
2022/05/04 15:18:00;;;;;;;20.00;7.53;;;20.40;74.50;;;;;;4935043;29;20183;-76
2022/05/04 15:20:26;;;;;;;10.87;4.60;;;20.60;74.90;;;;;;4935283;29;20243;-75
2022/05/04 15:22:55;;;;;;;5.80;4.30;;;20.50;74.30;;;;;;4935198;29;20407;-75
2022/05/04 15:25:21;;;;;;;4.67;4.27;;;20.10;75.50;;;;;;4941032;29;20421;-76
2022/05/04 15:27:46;;;;;;;5.43;4.20;;;20.50;75.00;;;;;;4938030;29;20911;-76
2022/05/04 15:30:12;;;;;;;8.63;3.57;;;20.70;73.10;;;;;;4952198;29;20194;-76
2022/05/04 15:32:38;;;;;;;6.87;4.50;;;20.70;74.00;;;;;;4948236;29;20254;-76
2022/05/04 15:35:04;;;;;;;7.63;3.73;;;20.10;74.90;;;;;;4941203;28;20506;-75
2022/05/04 15:37:30;;;;;;;7.60;4.20;;;20.10;74.60;;;;;;4934688;29;20778;-75
2022/05/04 15:39:56;;;;;;;4.57;4.03;;;19.90;74.30;;;;;;4934777;29;20172;-76
2022/05/04 15:42:21;;;;;;;4.37;3.23;;;20.20;74.60;;;;;;4934921;29;20438;-75
2022/05/04 15:44:47;;;;;;;4.07;3.77;;;20.40;74.90;;;;;;4934883;29;20179;-75
2022/05/04 15:47:13;;;;;;;6.00;3.50;;;20.40;73.80;;;;;;4934730;29;20569;-76
2022/05/04 15:49:39;;;;;;;7.03;4.03;;;20.40;74.20;;;;;;4934813;29;20554;-76
2022/05/04 15:52:06;;;;;;;4.47;3.73;;;20.70;73.30;;;;;;4917653;29;20203;-76
2022/05/04 15:54:33;;;;;;;4.30;3.77;;;20.80;73.60;;;;;;4938194;29;20446;-76
2022/05/04 15:56:59;;;;;;;7.37;3.87;;;20.60;72.40;;;;;;4953927;29;20419;-77
2022/05/04 15:59:24;;;;;;;4.10;3.70;;;20.50;73.10;;;;;;4950509;29;20422;-77
2022/05/04 16:01:50;;;;;;;5.13;3.60;;;20.30;73.40;;;;;;4950590;29;20533;-76
2022/05/04 16:04:15;;;;;;;5.97;3.63;;;20.40;74.00;;;;;;4946794;29;20209;-77
2022/05/04 16:06:41;;;;;;;8.53;4.37;;;20.30;73.60;;;;;;4942246;29;20216;-77
2022/05/04 16:09:10;;;;;;;9.33;3.63;;;20.30;74.20;;;;;;4946821;29;20550;-77
2022/05/04 16:11:37;;;;;;;7.07;3.27;;;20.10;74.50;;;;;;4943588;29;20462;-77
2022/05/04 16:14:02;;;;;;;4.27;3.00;;;20.30;74.30;;;;;;4942615;29;20489;-77
2022/05/04 16:16:28;;;;;;;10.80;3.30;;;20.00;75.10;;;;;;4935166;29;20431;-78
2022/05/04 16:21:48;;;;;;;5.20;3.70;;;19.70;76.90;;;;;;4934572;29;20750;-78
2022/05/04 16:24:21;;;;;;;5.47;3.53;;;19.90;77.10;;;;;;4934600;29;20419;-77
2022/05/04 16:26:49;;;;;;;6.23;3.30;;;19.60;77.30;;;;;;4947728;29;20462;-77
2022/05/04 16:29:16;;;;;;;5.17;3.40;;;19.60;77.90;;;;;;4947721;29;20411;-77
2022/05/04 16:31:43;;;;;;;6.87;3.77;;;19.50;78.00;;;;;;4950671;29;20497;-77
2022/05/04 16:34:09;;;;;;;8.37;3.40;;;19.40;77.40;;;;;;4953784;29;20446;-77
2022/05/04 16:36:36;;;;;;;4.07;3.40;;;19.20;78.90;;;;;;4952176;29;20426;-77
2022/05/04 16:39:03;;;;;;;5.43;3.53;;;19.00;79.90;;;;;;4954144;28;20414;-78
2022/05/04 16:41:28;;;;;;;4.23;3.30;;;18.70;80.60;;;;;;4946739;28;20451;-77
2022/05/04 16:43:54;;;;;;;5.50;3.50;;;18.70;81.20;;;;;;4938647;29;20427;-78
2022/05/04 16:46:20;;;;;;;6.53;3.27;;;18.70;82.10;;;;;;4939807;29;20752;-78
2022/05/04 16:48:45;;;;;;;3.70;3.40;;;18.50;81.00;;;;;;4946885;29;20175;-78
2022/05/04 16:51:11;;;;;;;3.83;3.40;;;18.40;81.50;;;;;;4945734;29;20191;-76
2022/05/04 16:53:37;;;;;;;5.80;3.23;;;18.30;82.50;;;;;;4945510;29;20205;-77
2022/05/04 16:56:03;;;;;;;10.23;3.83;;;18.30;82.50;;;;;;4942165;29;20453;-77
2022/05/04 16:58:29;;;;;;;5.30;3.57;;;18.20;83.80;;;;;;4946546;29;20175;-79
2022/05/04 17:00:55;;;;;;;8.33;3.50;;;18.20;84.60;;;;;;4947886;29;20439;-78
2022/05/04 17:03:21;;;;;;;5.10;3.60;;;18.00;84.40;;;;;;4946276;29;20257;-78
2022/05/04 17:05:47;;;;;;;3.73;3.43;;;18.00;83.20;;;;;;4947300;29;20495;-76
2022/05/04 17:08:13;;;;;;;7.80;3.70;;;17.90;81.90;;;;;;4933293;29;20448;-77
2022/05/04 17:10:39;;;;;;;5.70;4.43;;;17.90;80.70;;;;;;4956713;29;20793;-77
2022/05/04 17:13:04;;;;;;;4.80;3.63;;;17.90;79.60;;;;;;4955774;29;20288;-75
2022/05/04 17:15:30;;;;;;;5.80;5.00;;;17.90;78.10;;;;;;4939029;29;20185;-76
2022/05/04 17:17:55;;;;;;;6.83;4.37;;;17.90;78.30;;;;;;4950111;29;20272;-77
2022/05/04 17:20:21;;;;;;;4.03;3.60;;;17.90;82.00;;;;;;4937069;29;20334;-77
2022/05/04 17:22:46;;;;;;;5.03;3.83;;;17.80;84.80;;;;;;4937648;29;20668;-77
2022/05/04 17:25:12;;;;;;;4.33;3.57;;;17.70;86.80;;;;;;4937309;29;20230;-76
2022/05/04 17:27:37;;;;;;;3.90;3.33;;;17.50;88.40;;;;;;4936731;29;20198;-77
2022/05/04 17:30:04;;;;;;;9.93;4.20;;;17.30;89.70;;;;;;4942446;29;20193;-77
2022/05/04 17:37:58;;;;;;;4.47;3.93;;;17.10;87.10;;;;;;4937059;29;20503;-76
2022/05/04 17:40:24;;;;;;;6.93;3.83;;;16.90;88.40;;;;;;4937224;29;20455;-77
2022/05/04 17:42:49;;;;;;;8.53;3.83;;;16.80;89.70;;;;;;4938254;29;20176;-77
2022/05/04 17:45:15;;;;;;;7.70;3.80;;;16.70;90.00;;;;;;4937965;29;20199;-76
2022/05/04 17:47:42;;;;;;;8.00;4.43;;;16.70;89.90;;;;;;4937724;29;20547;-75
2022/05/04 17:50:08;;;;;;;7.13;4.43;;;16.60;90.50;;;;;;4947252;29;20428;-73
2022/05/04 17:52:34;;;;;;;8.23;4.70;;;16.50;90.10;;;;;;4961140;28;20451;-73
2022/05/04 17:55:00;;;;;;;11.77;5.30;;;16.40;89.40;;;;;;4937388;28;20435;-76
2022/05/04 17:57:25;;;;;;;15.80;7.13;;;16.40;90.00;;;;;;4922500;29;20179;-73
2022/05/04 17:59:51;;;;;;;7.73;6.83;;;16.30;91.70;;;;;;4947633;29;20226;-77
2022/05/04 18:05:01;;;;;;;4.00;3.60;;;16.00;92.70;;;;;;4949892;29;20667;-76
2022/05/04 18:07:26;;;;;;;6.77;3.90;;;15.80;94.90;;;;;;4952876;29;20469;-76
2022/05/04 18:09:54;;;;;;;4.60;3.77;;;15.50;96.30;;;;;;4955947;29;20594;-77
2022/05/04 18:12:20;;;;;;;5.47;3.80;;;15.50;96.30;;;;;;4944641;29;20262;-75
2022/05/04 18:14:46;;;;;;;5.60;4.30;;;15.20;96.30;;;;;;4957334;28;20530;-74
2022/05/04 18:17:11;;;;;;;6.87;3.70;;;15.00;96.30;;;;;;4956137;29;20866;-73
2022/05/04 18:19:37;;;;;;;6.27;4.40;;;14.90;96.30;;;;;;4955245;29;20209;-73
2022/05/04 18:37:35;;;;;;;3.80;3.40;;;14.40;96.30;;;;;;5178915;23;20494;-74
2022/05/04 18:40:01;;;;;;;3.63;3.33;;;14.30;96.30;;;;;;4938036;29;20434;-74
2022/05/04 18:42:27;;;;;;;3.70;3.40;;;14.30;96.30;;;;;;4947627;29;20426;-74
2022/05/04 18:44:52;;;;;;;4.23;3.83;;;14.30;96.30;;;;;;4936136;29;20403;-73
2022/05/04 18:47:18;;;;;;;3.33;3.13;;;14.20;96.30;;;;;;4935744;29;20211;-73
2022/05/04 18:49:43;;;;;;;3.40;3.10;;;14.10;96.30;;;;;;4935691;29;20258;-73
2022/05/04 19:28:24;;;;;;;4.93;4.50;;;13.00;96.30;;;;;;5485405;23;20547;-73
2022/05/04 19:46:44;;;;;;;5.50;5.00;;;12.00;96.30;;;;;;5764778;23;20489;-74
2022/05/04 19:49:09;;;;;;;5.70;4.67;;;11.90;96.30;;;;;;4948424;28;20775;-76
2022/05/04 19:51:35;;;;;;;5.30;4.90;;;11.90;96.30;;;;;;4930713;29;20497;-76
2022/05/04 19:54:00;;;;;;;5.20;4.40;;;11.90;96.30;;;;;;4934811;29;20710;-76
2022/05/04 19:56:26;;;;;;;5.40;4.90;;;11.90;96.30;;;;;;4934784;29;20536;-76
2022/05/04 19:58:51;;;;;;;5.27;4.33;;;11.80;96.30;;;;;;4917419;29;20186;-76
2022/05/04 20:01:17;;;;;;;5.30;4.83;;;11.70;96.30;;;;;;4951458;28;20206;-78
2022/05/04 20:03:43;;;;;;;5.57;5.07;;;11.60;96.30;;;;;;4940182;29;20212;-79
2022/05/04 20:06:08;;;;;;;5.50;5.00;;;11.50;96.30;;;;;;4936684;29;20278;-79
2022/05/04 20:08:36;;;;;;;5.63;4.90;;;11.40;96.30;;;;;;4920691;29;20641;-78
2022/05/04 20:11:02;;;;;;;5.00;4.60;;;11.40;96.30;;;;;;4936576;29;20198;-78
2022/05/04 20:13:28;;;;;;;6.30;5.67;;;11.50;96.30;;;;;;4936849;29;20437;-78
2022/05/04 20:15:53;;;;;;;5.50;5.00;;;11.60;96.30;;;;;;4939922;29;20974;-79
2022/05/04 20:18:19;;;;;;;7.93;5.20;;;11.60;96.30;;;;;;4951091;29;20187;-78
2022/05/04 20:20:44;;;;;;;6.10;5.20;;;11.60;96.30;;;;;;4957489;28;20275;-77
2022/05/04 20:23:12;;;;;;;7.40;5.47;;;11.60;96.30;;;;;;4954590;29;20266;-76
2022/05/04 20:25:38;;;;;;;6.70;5.27;;;11.60;96.30;;;;;;4955306;29;20194;-74
2022/05/04 20:28:06;;;;;;;5.97;4.93;;;11.60;96.30;;;;;;4955631;29;20419;-73
2022/05/04 20:30:32;;;;;;;5.63;5.13;;;11.60;96.30;;;;;;4955418;28;20477;-73
2022/05/04 20:32:58;;;;;;;7.33;5.17;;;11.60;96.30;;;;;;4938295;29;20434;-74
2022/05/04 20:35:24;;;;;;;5.50;5.10;;;11.50;96.30;;;;;;4955371;29;20777;-75
2022/05/04 20:40:34;;;;;;;6.20;5.60;;;11.50;96.30;;;;;;4957758;28;20550;-77
2022/05/04 20:43:00;;;;;;;5.77;5.17;;;11.50;96.30;;;;;;4959035;29;20805;-77
2022/05/04 20:45:25;;;;;;;5.70;5.13;;;11.50;96.30;;;;;;4942331;29;20179;-77
2022/05/04 20:47:51;;;;;;;6.90;5.23;;;11.50;96.30;;;;;;4959594;29;20722;-76